Time;durP1;ratioP1;P1;durP2;ratioP2;P2;SDS_P1;SDS_P2;PMS_P1;PMS_P2;Temp;Humidity;BMP_temperature;BMP_pressure;BME280_temperature;BME280_humidity;BME280_pressure;Samples;Min_cycle;Max_cycle;Signal;HPM_P1;HPM_P2
2021/10/21 00:00:48;;;;;;;10.45;6.25;;;14.20;99.90;;;;;;5070655;28;20043;-71
2021/10/21 00:03:52;;;;;;;9.40;6.35;;;14.30;99.90;;;;;;5065479;28;20044;-70
2021/10/21 00:06:56;;;;;;;9.25;5.72;;;14.20;99.90;;;;;;5071723;28;20229;-71
2021/10/21 00:10:02;;;;;;;8.60;5.25;;;14.20;99.90;;;;;;5069844;28;20277;-71
2021/10/21 00:13:06;;;;;;;8.82;5.40;;;14.30;99.90;;;;;;5069947;28;20353;-70
2021/10/21 00:16:10;;;;;;;7.32;4.90;;;14.30;99.90;;;;;;5071098;28;20043;-71
2021/10/21 00:19:14;;;;;;;10.18;5.10;;;14.30;99.90;;;;;;5068453;28;20044;-70
2021/10/21 00:22:19;;;;;;;10.63;5.03;;;14.30;99.90;;;;;;5065593;28;20039;-71
2021/10/21 00:25:23;;;;;;;8.98;5.70;;;14.30;99.90;;;;;;5070575;28;20391;-70
2021/10/21 00:28:27;;;;;;;8.27;4.90;;;14.30;99.90;;;;;;5050388;28;20974;-71
2021/10/21 00:31:31;;;;;;;9.45;6.07;;;14.30;99.90;;;;;;5063285;28;20044;-71
2021/10/21 00:34:35;;;;;;;9.75;5.60;;;14.20;99.90;;;;;;5070639;28;20044;-71
2021/10/21 00:37:40;;;;;;;6.82;5.55;;;14.20;99.90;;;;;;5050553;28;20040;-70
2021/10/21 00:40:44;;;;;;;7.40;4.65;;;14.20;99.90;;;;;;5065291;28;20040;-70
2021/10/21 00:43:48;;;;;;;8.20;4.50;;;14.20;99.90;;;;;;5070225;28;20043;-71
2021/10/21 00:46:52;;;;;;;7.15;5.40;;;14.30;99.90;;;;;;5050098;28;20486;-71
2021/10/21 00:49:56;;;;;;;8.38;5.03;;;14.30;99.90;;;;;;5049440;28;20036;-71
2021/10/21 00:53:01;;;;;;;8.32;5.40;;;14.30;99.90;;;;;;5056158;28;20043;-71
2021/10/21 00:56:13;;;;;;;10.77;4.97;;;14.40;99.90;;;;;;5070471;28;20048;-71
2021/10/21 00:59:18;;;;;;;7.40;5.50;;;14.40;99.90;;;;;;5052862;28;20070;-71
2021/10/21 01:02:22;;;;;;;6.65;4.60;;;14.20;99.90;;;;;;5058675;28;20047;-70
2021/10/21 01:05:26;;;;;;;8.90;5.63;;;14.20;99.90;;;;;;5070535;28;20051;-70
2021/10/21 01:08:30;;;;;;;6.45;4.80;;;14.20;99.90;;;;;;5067692;28;20051;-70
2021/10/21 01:11:35;;;;;;;6.65;4.70;;;14.30;99.90;;;;;;5064625;28;20395;-70
2021/10/21 01:14:40;;;;;;;7.47;5.05;;;14.30;99.90;;;;;;5070093;28;20040;-71
2021/10/21 01:17:44;;;;;;;7.32;5.18;;;14.40;99.90;;;;;;5050060;28;20048;-70
2021/10/21 01:20:49;;;;;;;9.00;4.88;;;14.40;99.90;;;;;;5062910;28;20044;-71
2021/10/21 01:23:52;;;;;;;11.18;5.30;;;14.40;99.90;;;;;;5069600;28;20044;-71
2021/10/21 01:26:56;;;;;;;6.45;4.50;;;14.50;99.90;;;;;;5050189;28;20147;-70
2021/10/21 01:30:00;;;;;;;9.32;4.20;;;14.60;99.90;;;;;;5049025;28;20056;-71
2021/10/21 01:33:05;;;;;;;6.15;4.32;;;14.60;99.90;;;;;;5054586;28;20043;-71
2021/10/21 01:36:12;;;;;;;8.23;4.30;;;14.60;99.90;;;;;;5054068;28;20055;-70
2021/10/21 01:39:16;;;;;;;7.78;4.22;;;14.60;99.90;;;;;;5058569;28;20040;-71
2021/10/21 01:42:20;;;;;;;6.22;4.32;;;14.40;99.90;;;;;;5059783;28;20053;-71
2021/10/21 01:45:27;;;;;;;7.28;3.97;;;14.50;99.90;;;;;;5073572;28;20505;-71
2021/10/21 01:48:31;;;;;;;6.20;4.15;;;14.50;99.90;;;;;;5073061;28;20123;-70
2021/10/21 01:51:36;;;;;;;10.00;4.43;;;14.50;99.90;;;;;;5068643;28;20048;-71
2021/10/21 01:54:40;;;;;;;6.75;3.90;;;14.50;99.90;;;;;;5053836;28;20065;-71
2021/10/21 01:57:45;;;;;;;6.57;4.20;;;14.50;99.90;;;;;;5053802;28;20040;-71
2021/10/21 02:00:49;;;;;;;7.43;4.47;;;14.40;99.90;;;;;;5059507;28;20051;-71
2021/10/21 02:03:53;;;;;;;5.43;4.15;;;14.40;99.90;;;;;;5073763;28;20051;-70
2021/10/21 02:06:57;;;;;;;4.47;3.90;;;14.40;99.90;;;;;;5053477;28;20040;-71
2021/10/21 02:10:05;;;;;;;7.82;3.83;;;14.40;99.90;;;;;;5053075;28;20048;-70
2021/10/21 02:13:10;;;;;;;7.55;4.32;;;14.40;99.90;;;;;;5053659;28;20593;-71
2021/10/21 02:16:14;;;;;;;4.70;3.63;;;14.40;99.90;;;;;;5053644;28;20036;-70
2021/10/21 02:19:18;;;;;;;9.25;4.63;;;14.40;99.90;;;;;;5057074;28;20498;-70
2021/10/21 02:22:23;;;;;;;6.25;3.97;;;14.40;99.90;;;;;;5056934;28;20048;-71
2021/10/21 02:25:27;;;;;;;6.30;4.72;;;14.40;99.90;;;;;;5073299;28;20047;-71
2021/10/21 02:28:31;;;;;;;6.53;4.10;;;14.40;99.90;;;;;;5058140;28;20047;-71
2021/10/21 02:31:35;;;;;;;5.28;4.10;;;14.40;99.90;;;;;;5054149;28;20423;-70
2021/10/21 02:34:38;;;;;;;4.95;3.50;;;14.40;99.90;;;;;;5072884;28;20044;-70
2021/10/21 02:37:42;;;;;;;7.10;4.30;;;14.40;99.90;;;;;;5052288;28;20036;-71
2021/10/21 02:40:47;;;;;;;7.63;4.28;;;14.30;99.90;;;;;;5052774;28;20044;-71
2021/10/21 02:43:51;;;;;;;6.38;4.43;;;14.30;99.90;;;;;;5051456;28;20040;-70
2021/10/21 02:46:55;;;;;;;6.78;4.45;;;14.30;99.90;;;;;;5051801;28;20503;-71
2021/10/21 02:49:59;;;;;;;6.78;4.57;;;14.30;99.90;;;;;;5051932;28;20040;-71
2021/10/21 02:53:04;;;;;;;6.35;3.90;;;14.30;99.90;;;;;;5052576;28;20036;-71
2021/10/21 02:56:08;;;;;;;5.68;4.07;;;14.40;99.90;;;;;;5052786;28;20044;-70
2021/10/21 02:59:12;;;;;;;5.50;4.25;;;14.40;99.90;;;;;;5059578;28;20047;-70
2021/10/21 03:02:16;;;;;;;5.35;3.88;;;14.50;99.90;;;;;;5071786;28;20056;-71
2021/10/21 03:05:20;;;;;;;8.43;4.28;;;14.50;99.90;;;;;;5072438;28;20048;-71
2021/10/21 03:08:24;;;;;;;5.75;4.35;;;14.50;99.90;;;;;;5061134;28;20044;-71
2021/10/21 03:11:28;;;;;;;8.38;3.92;;;14.60;99.90;;;;;;5054054;28;20059;-71
2021/10/21 03:14:32;;;;;;;5.38;3.80;;;14.70;99.90;;;;;;5052625;28;20044;-71
2021/10/21 03:17:41;;;;;;;6.60;4.32;;;14.70;99.90;;;;;;5067150;28;20040;-71
2021/10/21 03:20:45;;;;;;;7.90;4.40;;;14.70;99.90;;;;;;5066112;28;20526;-71
2021/10/21 03:23:49;;;;;;;7.53;4.32;;;14.80;99.90;;;;;;5051968;28;20040;-71
2021/10/21 03:26:53;;;;;;;9.27;4.30;;;14.80;99.90;;;;;;5065536;28;20063;-71
2021/10/21 03:29:58;;;;;;;5.20;4.22;;;14.70;99.90;;;;;;5065880;28;20048;-70
2021/10/21 03:33:02;;;;;;;7.75;4.35;;;14.70;99.90;;;;;;5072119;28;20051;-71
2021/10/21 03:36:06;;;;;;;8.52;4.50;;;14.70;99.90;;;;;;5051596;28;20379;-70
2021/10/21 03:39:10;;;;;;;5.00;4.03;;;14.70;99.90;;;;;;5055749;28;20047;-70
2021/10/21 03:42:14;;;;;;;6.60;4.50;;;14.60;99.90;;;;;;5051749;28;20044;-70
2021/10/21 03:45:18;;;;;;;5.78;4.20;;;14.60;99.90;;;;;;5069982;28;20051;-70
2021/10/21 03:48:22;;;;;;;5.80;3.97;;;14.60;99.90;;;;;;5059554;28;20506;-72
2021/10/21 03:51:26;;;;;;;7.88;4.72;;;14.50;99.90;;;;;;5051860;28;20036;-71
2021/10/21 03:54:31;;;;;;;10.13;4.75;;;14.50;99.90;;;;;;5051234;28;20044;-71
2021/10/21 03:57:36;;;;;;;5.68;4.60;;;14.50;99.90;;;;;;5064247;28;20056;-71
2021/10/21 04:00:41;;;;;;;7.03;3.90;;;14.50;99.90;;;;;;5069171;28;20403;-70
2021/10/21 04:03:45;;;;;;;6.90;4.75;;;14.40;99.90;;;;;;5051394;28;20051;-70
2021/10/21 04:06:49;;;;;;;9.15;4.45;;;14.40;99.90;;;;;;5051595;28;20048;-70
2021/10/21 04:09:53;;;;;;;7.50;4.25;;;14.40;99.90;;;;;;5054496;28;20498;-70
2021/10/21 04:12:58;;;;;;;6.13;4.28;;;14.40;99.90;;;;;;5071335;28;20047;-70
2021/10/21 04:16:02;;;;;;;5.47;4.20;;;14.40;99.90;;;;;;5052560;28;20052;-70
2021/10/21 04:19:06;;;;;;;5.10;3.90;;;14.40;99.90;;;;;;5051608;28;20494;-70
2021/10/21 04:22:10;;;;;;;7.00;4.18;;;14.30;99.90;;;;;;5070817;28;20399;-71
2021/10/21 04:25:14;;;;;;;6.07;4.07;;;14.30;99.90;;;;;;5049985;28;20052;-71
2021/10/21 04:28:18;;;;;;;6.32;4.25;;;14.30;99.90;;;;;;5053463;28;20052;-70
2021/10/21 04:31:22;;;;;;;8.63;4.68;;;14.40;99.90;;;;;;5067882;28;20063;-70
2021/10/21 04:34:26;;;;;;;5.22;4.03;;;14.40;99.90;;;;;;5053975;28;20044;-70
2021/10/21 04:37:30;;;;;;;5.82;4.30;;;14.30;99.90;;;;;;5050338;28;20040;-71
2021/10/21 04:40:34;;;;;;;5.88;4.32;;;14.30;99.90;;;;;;5051111;28;20397;-70
2021/10/21 04:43:38;;;;;;;7.65;4.60;;;14.40;99.90;;;;;;5050352;28;20065;-71
2021/10/21 04:46:42;;;;;;;6.60;4.68;;;14.30;99.90;;;;;;5050532;28;20064;-70
2021/10/21 04:49:47;;;;;;;6.68;4.47;;;14.30;99.90;;;;;;5051042;28;20047;-70
2021/10/21 04:52:55;;;;;;;6.93;4.45;;;14.30;99.90;;;;;;5070872;28;20040;-71
2021/10/21 04:55:59;;;;;;;5.43;4.35;;;14.30;99.90;;;;;;5059133;28;20051;-71
2021/10/21 04:59:03;;;;;;;8.02;4.80;;;14.30;99.90;;;;;;5053364;28;20348;-70
2021/10/21 05:02:09;;;;;;;5.63;4.97;;;14.30;99.90;;;;;;5070187;28;20392;-71
2021/10/21 05:05:13;;;;;;;5.80;4.72;;;14.40;99.90;;;;;;5068926;28;20047;-70
2021/10/21 05:08:17;;;;;;;8.73;4.72;;;14.40;99.90;;;;;;5068885;28;20514;-70
2021/10/21 05:11:21;;;;;;;6.78;5.00;;;14.50;99.90;;;;;;5070783;28;20044;-71
2021/10/21 05:14:25;;;;;;;5.90;4.65;;;14.50;99.90;;;;;;5065350;28;20487;-71
2021/10/21 05:17:29;;;;;;;6.68;4.68;;;14.60;99.90;;;;;;5062504;28;20202;-71
2021/10/21 05:20:34;;;;;;;7.15;4.20;;;14.60;99.90;;;;;;5050248;28;20056;-71
2021/10/21 05:23:38;;;;;;;4.57;3.70;;;14.70;99.90;;;;;;5050392;28;20048;-70
2021/10/21 05:26:42;;;;;;;5.97;4.25;;;14.80;99.90;;;;;;5049479;28;20419;-70
2021/10/21 05:29:46;;;;;;;11.20;4.57;;;14.80;99.90;;;;;;5050201;28;20048;-71
2021/10/21 05:32:50;;;;;;;9.73;4.03;;;14.80;99.90;;;;;;5050117;28;20052;-70
2021/10/21 05:35:54;;;;;;;7.45;3.78;;;14.90;99.90;;;;;;5049868;28;20040;-70
2021/10/21 05:38:58;;;;;;;12.63;4.50;;;14.90;99.90;;;;;;5050107;28;20052;-71
2021/10/21 05:42:02;;;;;;;6.63;3.90;;;15.00;99.90;;;;;;5050109;28;20047;-71
2021/10/21 05:45:07;;;;;;;4.32;3.40;;;15.00;99.90;;;;;;5049548;28;20047;-71
2021/10/21 05:48:13;;;;;;;7.07;3.85;;;15.00;99.90;;;;;;5050015;28;20060;-70
2021/10/21 05:51:16;;;;;;;5.97;3.85;;;15.00;99.90;;;;;;5049029;28;20056;-71
2021/10/21 05:54:20;;;;;;;7.68;4.10;;;15.10;99.90;;;;;;5054154;28;20040;-71
2021/10/21 05:57:25;;;;;;;9.32;4.15;;;15.20;99.90;;;;;;5053687;28;20379;-71
2021/10/21 06:00:31;;;;;;;6.00;3.63;;;15.30;99.90;;;;;;5049582;28;20506;-70
2021/10/21 06:03:38;;;;;;;6.05;3.47;;;15.40;99.90;;;;;;5062428;28;20047;-71
2021/10/21 06:06:42;;;;;;;7.32;3.75;;;15.30;99.90;;;;;;5066296;28;20115;-71
2021/10/21 06:09:47;;;;;;;5.57;3.78;;;15.20;99.90;;;;;;5049290;28;20052;-71
2021/10/21 06:12:51;;;;;;;6.93;3.83;;;15.30;99.90;;;;;;5060328;28;20036;-71
2021/10/21 06:15:55;;;;;;;7.55;3.90;;;15.40;99.90;;;;;;5049382;28;20037;-71
2021/10/21 06:19:00;;;;;;;7.00;3.78;;;15.10;99.90;;;;;;5052610;28;20040;-71
2021/10/21 06:22:08;;;;;;;8.18;3.92;;;15.10;99.90;;;;;;5071394;28;20047;-71
2021/10/21 06:25:13;;;;;;;7.75;3.67;;;15.20;99.90;;;;;;5066807;28;20035;-72
2021/10/21 06:28:17;;;;;;;7.40;4.30;;;15.30;99.90;;;;;;5062753;28;20036;-71
2021/10/21 06:31:22;;;;;;;6.63;3.90;;;15.30;99.90;;;;;;5069875;28;20398;-71
2021/10/21 06:34:26;;;;;;;14.40;3.70;;;15.40;99.90;;;;;;5058430;28;20039;-71
2021/10/21 06:37:31;;;;;;;7.13;3.67;;;15.40;99.90;;;;;;5065616;28;20036;-71
2021/10/21 06:40:35;;;;;;;6.03;3.75;;;15.30;99.90;;;;;;5063103;28;20277;-70
2021/10/21 06:43:39;;;;;;;7.20;3.65;;;15.30;99.90;;;;;;5062153;28;20044;-70
2021/10/21 06:46:43;;;;;;;8.85;4.30;;;15.40;99.90;;;;;;5065147;28;20052;-71
2021/10/21 06:49:47;;;;;;;10.88;3.90;;;15.50;99.90;;;;;;5063002;28;20557;-71
2021/10/21 06:52:52;;;;;;;9.25;3.88;;;15.40;99.90;;;;;;5065098;28;20046;-71
2021/10/21 06:55:56;;;;;;;8.02;4.13;;;15.20;99.90;;;;;;5065784;28;20048;-71
2021/10/21 06:59:00;;;;;;;11.35;4.50;;;15.30;99.90;;;;;;5072035;28;20421;-71
2021/10/21 07:02:04;;;;;;;9.98;4.88;;;15.40;99.90;;;;;;5059594;28;20043;-71
2021/10/21 07:05:10;;;;;;;7.70;4.10;;;15.50;99.90;;;;;;5061574;28;20035;-70
2021/10/21 07:08:14;;;;;;;4.35;3.33;;;15.60;99.90;;;;;;5062398;28;20035;-70
2021/10/21 07:11:19;;;;;;;9.93;3.72;;;15.60;99.90;;;;;;5061702;28;20060;-71
2021/10/21 07:14:23;;;;;;;8.05;3.67;;;15.70;99.90;;;;;;5069195;28;20371;-71
2021/10/21 07:17:27;;;;;;;7.97;4.10;;;15.70;99.90;;;;;;5064658;28;20044;-70
2021/10/21 07:20:32;;;;;;;8.82;4.13;;;15.80;99.90;;;;;;5067430;28;20075;-70
2021/10/21 07:23:37;;;;;;;12.50;5.97;;;15.90;99.90;;;;;;5063845;28;20047;-71
2021/10/21 07:26:42;;;;;;;10.70;5.18;;;15.80;99.90;;;;;;5061860;28;20040;-70
2021/10/21 07:29:47;;;;;;;7.32;4.43;;;15.80;99.90;;;;;;5065126;28;20051;-71
2021/10/21 07:32:50;;;;;;;6.80;4.22;;;15.70;99.90;;;;;;5060894;28;20039;-71
2021/10/21 07:35:56;;;;;;;6.47;4.80;;;15.80;99.90;;;;;;5066694;28;20498;-71
2021/10/21 07:39:00;;;;;;;13.98;5.80;;;15.70;99.90;;;;;;5062242;28;20060;-71
2021/10/21 07:42:05;;;;;;;11.25;5.57;;;15.70;99.90;;;;;;5068134;28;20051;-71
2021/10/21 07:45:10;;;;;;;8.07;4.25;;;15.70;99.90;;;;;;5067229;28;20077;-70
2021/10/21 07:48:17;;;;;;;10.80;5.50;;;15.70;99.90;;;;;;5070771;28;20044;-71
2021/10/21 07:51:21;;;;;;;6.20;4.15;;;15.60;99.90;;;;;;5052047;28;20063;-70
2021/10/21 07:54:29;;;;;;;9.75;5.00;;;15.60;99.90;;;;;;5059270;28;20582;-71
2021/10/21 07:57:34;;;;;;;8.43;4.68;;;15.70;99.90;;;;;;5061681;28;20056;-71
2021/10/21 08:00:38;;;;;;;7.25;3.97;;;15.80;99.90;;;;;;5051540;28;20060;-71
2021/10/21 08:03:43;;;;;;;8.70;5.15;;;15.80;99.90;;;;;;5056873;28;20047;-71
2021/10/21 08:06:48;;;;;;;8.48;5.15;;;15.90;99.90;;;;;;5053440;28;20048;-71
2021/10/21 08:09:52;;;;;;;11.02;5.28;;;16.00;99.90;;;;;;5050324;28;20048;-71
2021/10/21 08:12:56;;;;;;;8.60;5.47;;;15.90;99.90;;;;;;5059230;28;20056;-71
2021/10/21 08:16:01;;;;;;;9.82;4.82;;;16.00;99.90;;;;;;5070426;28;20482;-71
2021/10/21 08:19:05;;;;;;;10.40;4.20;;;16.20;99.90;;;;;;5050798;28;20065;-71
2021/10/21 08:22:09;;;;;;;10.43;4.55;;;16.30;99.90;;;;;;5064780;28;20036;-71
2021/10/21 08:25:15;;;;;;;6.82;4.40;;;16.40;99.90;;;;;;5054849;28;20039;-71
2021/10/21 08:28:19;;;;;;;12.18;4.20;;;16.30;99.90;;;;;;5071069;28;20399;-71
2021/10/21 08:31:23;;;;;;;6.80;4.20;;;16.20;99.90;;;;;;5056266;28;20504;-71
2021/10/21 08:34:33;;;;;;;7.97;3.90;;;16.30;99.90;;;;;;5056334;28;20510;-71
2021/10/21 08:37:37;;;;;;;5.20;3.80;;;16.30;99.90;;;;;;5071310;28;20044;-70
2021/10/21 08:40:42;;;;;;;9.27;4.20;;;16.40;99.90;;;;;;5067113;28;20049;-71
2021/10/21 08:43:47;;;;;;;6.32;3.88;;;16.30;99.90;;;;;;5066375;28;20047;-71
2021/10/21 08:46:54;;;;;;;6.45;3.60;;;16.10;99.90;;;;;;5070994;28;20043;-71
2021/10/21 08:49:58;;;;;;;10.77;3.95;;;16.30;99.90;;;;;;5069087;28;20478;-71
2021/10/21 08:53:05;;;;;;;9.90;4.93;;;16.30;99.90;;;;;;5064262;28;20044;-71
2021/10/21 08:56:09;;;;;;;8.32;3.75;;;16.30;99.90;;;;;;5052853;28;20048;-71
2021/10/21 08:59:14;;;;;;;5.60;3.33;;;16.40;99.90;;;;;;5066916;28;20407;-71
2021/10/21 09:02:22;;;;;;;9.10;3.83;;;16.30;99.90;;;;;;5055430;28;20044;-71
2021/10/21 09:08:43;;;;;;;6.65;4.00;;;16.40;99.90;;;;;;5050466;28;20044;-71
2021/10/21 09:12:10;;;;;;;7.30;3.63;;;16.50;99.90;;;;;;5057433;28;20052;-71
2021/10/21 09:15:19;;;;;;;10.00;4.13;;;16.50;99.90;;;;;;5064300;28;20036;-70
2021/10/21 09:18:26;;;;;;;5.53;3.70;;;16.50;99.90;;;;;;5058190;28;20043;-71
2021/10/21 09:21:30;;;;;;;11.93;4.35;;;16.50;99.90;;;;;;5063563;28;20059;-71
2021/10/21 09:24:41;;;;;;;5.97;4.10;;;16.50;99.90;;;;;;5064120;28;20115;-71
2021/10/21 09:27:45;;;;;;;8.60;3.97;;;16.40;99.90;;;;;;5056956;28;20047;-71
2021/10/21 09:31:05;;;;;;;10.63;4.80;;;16.40;99.90;;;;;;5067844;28;20063;-71
2021/10/21 09:34:17;;;;;;;9.40;4.57;;;16.40;99.90;;;;;;5049489;28;20042;-71
2021/10/21 09:37:26;;;;;;;8.98;4.10;;;16.60;99.90;;;;;;5060774;28;20048;-71
2021/10/21 09:40:34;;;;;;;6.40;4.20;;;16.60;99.90;;;;;;5064033;28;20057;-71
2021/10/21 09:43:38;;;;;;;12.05;4.45;;;16.70;99.90;;;;;;5068419;28;20043;-70
2021/10/21 09:46:43;;;;;;;7.85;3.90;;;16.70;99.90;;;;;;5065185;28;20040;-71
2021/10/21 09:49:53;;;;;;;6.88;3.60;;;16.70;99.90;;;;;;5068785;28;20055;-71
2021/10/21 09:53:19;;;;;;;8.25;4.47;;;16.90;99.90;;;;;;5063475;28;20040;-71
2021/10/21 09:56:23;;;;;;;10.57;4.50;;;17.00;99.90;;;;;;5061772;28;20059;-71
2021/10/21 09:59:31;;;;;;;9.80;4.50;;;17.00;99.90;;;;;;5067927;28;20048;-71
2021/10/21 10:02:36;;;;;;;21.77;12.65;;;17.00;99.90;;;;;;5053739;28;20036;-71
2021/10/21 10:05:54;;;;;;;19.98;11.25;;;17.10;99.90;;;;;;5060756;28;20048;-71
2021/10/21 10:08:58;;;;;;;14.65;5.50;;;17.10;99.90;;;;;;5062059;28;20035;-71
2021/10/21 10:12:04;;;;;;;10.45;4.18;;;16.90;99.90;;;;;;5071870;28;20051;-71
2021/10/21 10:15:08;;;;;;;7.22;3.58;;;17.10;99.90;;;;;;5067986;28;20036;-71
2021/10/21 10:18:22;;;;;;;6.63;3.75;;;17.20;99.90;;;;;;5059209;28;20048;-71
2021/10/21 10:21:34;;;;;;;6.78;3.97;;;17.40;99.90;;;;;;5057356;28;20040;-71
2021/10/21 10:24:39;;;;;;;6.85;4.20;;;17.50;99.90;;;;;;5063585;28;20500;-71
2021/10/21 10:27:59;;;;;;;8.80;3.92;;;17.60;99.90;;;;;;5063570;28;20063;-71
2021/10/21 10:31:03;;;;;;;6.18;3.72;;;17.80;99.90;;;;;;5059529;28;20051;-71
2021/10/21 10:34:29;;;;;;;9.73;3.65;;;18.10;99.90;;;;;;5059357;28;20040;-71
2021/10/21 10:37:40;;;;;;;6.93;3.63;;;18.10;99.90;;;;;;5056540;28;20040;-71
2021/10/21 10:40:56;;;;;;;5.93;3.53;;;18.00;99.90;;;;;;5062221;28;20047;-71
2021/10/21 10:44:00;;;;;;;6.40;3.38;;;18.00;99.90;;;;;;5060986;28;20044;-71
2021/10/21 10:47:09;;;;;;;6.95;3.70;;;18.00;99.90;;;;;;5057806;28;20052;-71
2021/10/21 10:50:15;;;;;;;5.30;3.22;;;18.00;99.90;;;;;;5059632;28;20387;-71
2021/10/21 10:53:47;;;;;;;8.25;3.60;;;18.00;99.90;;;;;;5061185;28;20035;-71
2021/10/21 10:56:52;;;;;;;10.65;4.10;;;17.90;99.90;;;;;;5064296;28;20040;-71
2021/10/21 10:59:57;;;;;;;8.05;3.55;;;17.90;99.90;;;;;;5061620;28;20059;-71
2021/10/21 11:03:02;;;;;;;11.65;3.40;;;18.00;99.90;;;;;;5067795;28;20047;-71
2021/10/21 11:06:10;;;;;;;7.97;3.40;;;17.90;99.90;;;;;;5062785;28;20043;-71
2021/10/21 11:09:24;;;;;;;9.63;3.75;;;17.90;99.90;;;;;;5068374;28;20035;-71
2021/10/21 11:12:29;;;;;;;5.35;2.78;;;17.90;99.90;;;;;;5058120;28;20470;-72
2021/10/21 11:15:35;;;;;;;4.40;3.28;;;18.00;99.90;;;;;;5061849;28;20031;-71
2021/10/21 11:18:39;;;;;;;8.77;4.00;;;18.30;99.90;;;;;;5062722;28;20036;-71
2021/10/21 11:21:52;;;;;;;5.82;3.95;;;18.40;99.90;;;;;;5066982;28;20043;-71
2021/10/21 11:25:03;;;;;;;8.93;3.88;;;18.60;99.90;;;;;;5067062;28;20059;-71
2021/10/21 11:28:07;;;;;;;10.30;3.25;;;18.70;99.90;;;;;;5067237;28;20110;-71
2021/10/21 11:31:12;;;;;;;5.88;3.33;;;18.60;99.90;;;;;;5063897;28;20036;-72
2021/10/21 11:34:16;;;;;;;5.25;3.67;;;18.50;99.90;;;;;;5063870;28;20391;-71
2021/10/21 11:37:38;;;;;;;8.20;3.83;;;18.50;99.90;;;;;;5059845;28;20510;-72
2021/10/21 11:40:49;;;;;;;10.60;3.88;;;18.30;99.90;;;;;;5066740;28;20530;-71
2021/10/21 11:43:53;;;;;;;9.45;3.22;;;18.40;99.90;;;;;;5061454;28;20059;-71
2021/10/21 11:47:01;;;;;;;7.82;3.60;;;18.60;99.90;;;;;;5059406;28;20036;-71
2021/10/21 11:50:06;;;;;;;5.25;3.50;;;18.60;99.90;;;;;;5067011;28;20503;-72
2021/10/21 11:53:14;;;;;;;9.70;3.67;;;18.80;99.90;;;;;;5066877;28;20047;-72
2021/10/21 11:56:19;;;;;;;6.22;3.63;;;18.80;99.90;;;;;;5063211;28;20039;-72
2021/10/21 11:59:34;;;;;;;8.02;3.90;;;18.90;99.90;;;;;;5069413;28;20036;-71
2021/10/21 12:02:38;;;;;;;7.70;3.15;;;18.90;99.90;;;;;;5065526;28;20035;-71
2021/10/21 12:05:43;;;;;;;9.02;3.78;;;18.80;99.90;;;;;;5068041;28;20053;-72
2021/10/21 12:09:02;;;;;;;7.72;3.75;;;18.90;99.90;;;;;;5068037;28;20037;-71
2021/10/21 12:12:14;;;;;;;7.38;3.30;;;18.70;99.90;;;;;;5062500;28;20040;-72
2021/10/21 12:15:19;;;;;;;;;;;18.90;99.90;;;;;;5063786;28;20039;-72
2021/10/21 12:18:26;;;;;;;5.50;3.30;;;18.80;99.90;;;;;;5057056;28;19915;-72
2021/10/21 12:21:38;;;;;;;11.80;3.67;;;18.80;99.90;;;;;;5065734;28;20042;-71
2021/10/21 12:24:43;;;;;;;;;;;18.90;99.90;;;;;;5066469;28;20051;-72
2021/10/21 12:27:58;;;;;;;4.53;3.60;;;18.90;99.90;;;;;;5061989;28;19919;-71
2021/10/21 12:31:18;;;;;;;6.07;3.10;;;19.00;99.90;;;;;;5064752;28;20517;-72
2021/10/21 12:34:29;;;;;;;13.20;3.55;;;19.00;99.90;;;;;;5062362;28;20035;-71
2021/10/21 12:37:40;;;;;;;8.95;3.45;;;19.00;99.90;;;;;;5062804;28;20036;-72
2021/10/21 12:40:45;;;;;;;6.75;3.47;;;19.00;99.90;;;;;;5062044;28;20535;-71
2021/10/21 12:44:03;;;;;;;5.25;3.53;;;19.00;99.90;;;;;;5065036;28;20043;-72
2021/10/21 12:47:27;;;;;;;5.10;3.35;;;18.90;99.90;;;;;;5066541;28;20555;-71
2021/10/21 12:50:32;;;;;;;7.55;3.15;;;18.90;99.90;;;;;;5064422;28;20039;-71
2021/10/21 12:53:37;;;;;;;6.20;3.28;;;18.90;99.90;;;;;;5067224;28;20387;-71
2021/10/21 12:56:55;;;;;;;7.10;3.65;;;19.00;99.90;;;;;;5056993;28;20039;-71
2021/10/21 13:00:00;;;;;;;5.20;3.42;;;18.90;99.90;;;;;;5058164;28;20043;-71
2021/10/21 13:03:19;;;;;;;9.40;3.42;;;18.90;99.90;;;;;;5063652;28;20391;-71
2021/10/21 13:06:24;;;;;;;12.20;3.53;;;19.00;99.90;;;;;;5062799;28;20048;-72
2021/10/21 13:09:32;;;;;;;5.88;4.00;;;19.00;99.90;;;;;;5061312;28;20073;-71
2021/10/21 13:12:37;;;;;;;10.98;6.63;;;18.80;99.90;;;;;;5059537;28;20056;-71
2021/10/21 13:15:41;;;;;;;17.58;6.93;;;18.70;99.90;;;;;;5060269;28;20475;-71
2021/10/21 13:18:48;;;;;;;10.60;5.40;;;18.70;99.90;;;;;;5065527;28;20043;-72
2021/10/21 13:21:53;;;;;;;15.43;6.40;;;18.70;99.90;;;;;;5061931;28;20059;-71
2021/10/21 13:24:57;;;;;;;10.27;4.40;;;18.70;99.90;;;;;;5066363;28;20056;-71
2021/10/21 13:28:01;;;;;;;5.25;3.53;;;18.70;99.90;;;;;;5059476;28;20048;-71
2021/10/21 13:31:05;;;;;;;9.85;3.58;;;18.80;99.90;;;;;;5059032;28;20039;-71
2021/10/21 13:34:09;;;;;;;5.72;3.60;;;18.90;99.90;;;;;;5060480;28;20052;-72
2021/10/21 13:37:13;;;;;;;7.15;3.25;;;18.90;99.90;;;;;;5059817;28;20490;-71
2021/10/21 13:40:17;;;;;;;10.45;5.78;;;19.00;99.90;;;;;;5058996;28;20055;-71
2021/10/21 13:43:21;;;;;;;16.73;7.15;;;18.90;99.90;;;;;;5055483;28;20047;-71
2021/10/21 13:46:27;;;;;;;8.65;4.60;;;18.80;99.90;;;;;;5059013;28;20048;-71
2021/10/21 13:49:34;;;;;;;6.70;4.07;;;18.90;99.90;;;;;;5058518;28;20049;-72
2021/10/21 13:52:38;;;;;;;8.30;3.40;;;19.00;99.90;;;;;;5055391;28;20048;-71
2021/10/21 13:55:42;;;;;;;9.38;4.35;;;19.00;99.90;;;;;;5059596;28;20047;-72
2021/10/21 13:58:47;;;;;;;5.78;3.63;;;19.10;99.90;;;;;;5063128;28;20040;-72
2021/10/21 14:01:52;;;;;;;9.80;3.50;;;19.20;99.90;;;;;;5059645;28;20502;-71
2021/10/21 14:04:56;;;;;;;10.07;3.30;;;19.30;99.90;;;;;;5066891;28;20052;-71
2021/10/21 14:08:02;;;;;;;7.65;3.70;;;19.40;99.90;;;;;;5055639;28;20131;-72
2021/10/21 14:11:06;;;;;;;8.15;3.33;;;19.40;99.90;;;;;;5066082;28;20505;-71
2021/10/21 14:14:10;;;;;;;6.53;3.95;;;19.40;99.90;;;;;;5055452;28;20044;-72
2021/10/21 14:17:15;;;;;;;8.27;3.80;;;19.30;99.90;;;;;;5063674;28;20040;-71
2021/10/21 14:20:19;;;;;;;7.35;3.20;;;19.20;99.90;;;;;;5059045;28;20051;-72
2021/10/21 14:23:24;;;;;;;7.85;3.38;;;19.20;99.90;;;;;;5058367;28;20048;-72
2021/10/21 14:26:28;;;;;;;11.73;3.80;;;19.10;99.90;;;;;;5061413;28;20040;-72
2021/10/21 14:29:33;;;;;;;8.20;3.50;;;19.00;99.90;;;;;;5055415;28;20372;-71
2021/10/21 14:32:37;;;;;;;8.93;4.07;;;19.00;99.90;;;;;;5056103;28;20044;-71
2021/10/21 14:35:43;;;;;;;6.38;3.28;;;19.00;99.90;;;;;;5055270;28;20421;-71
2021/10/21 14:38:47;;;;;;;7.50;3.85;;;19.10;99.90;;;;;;5057969;28;20060;-71
2021/10/21 14:41:52;;;;;;;11.18;3.88;;;19.20;99.90;;;;;;5065511;28;20047;-71
2021/10/21 14:44:56;;;;;;;7.22;3.53;;;19.20;99.90;;;;;;5065398;28;20047;-71
2021/10/21 14:48:00;;;;;;;11.27;4.00;;;19.10;99.90;;;;;;5064370;28;20044;-71
2021/10/21 14:51:04;;;;;;;13.90;4.30;;;19.20;99.90;;;;;;5066939;28;20048;-71
2021/10/21 14:54:08;;;;;;;7.40;3.72;;;19.20;99.90;;;;;;5065518;28;20047;-71
2021/10/21 14:57:13;;;;;;;9.07;4.05;;;19.40;99.90;;;;;;5063737;28;20044;-72
2021/10/21 15:00:18;;;;;;;10.05;4.00;;;19.50;99.90;;;;;;5066351;28;20283;-71
2021/10/21 15:03:22;;;;;;;13.50;3.90;;;19.50;99.90;;;;;;5066439;28;20051;-71
2021/10/21 15:09:54;;;;;;;5.65;3.40;;;19.30;99.90;;;;;;5060635;28;20044;-71
2021/10/21 15:22:52;;;;;;;7.38;3.63;;;19.00;99.90;;;;;;5063737;28;20383;-71
2021/10/21 15:25:58;;;;;;;13.63;4.28;;;18.90;99.90;;;;;;5068337;28;20067;-71
2021/10/21 15:29:02;;;;;;;14.45;4.65;;;18.80;99.90;;;;;;5068044;28;20043;-71
2021/10/21 15:32:06;;;;;;;8.20;3.60;;;18.70;99.90;;;;;;5064338;28;20039;-71
2021/10/21 15:35:10;;;;;;;9.05;4.85;;;18.70;99.90;;;;;;5058891;28;20107;-71
2021/10/21 15:38:18;;;;;;;11.25;5.00;;;18.70;99.90;;;;;;5061413;28;20032;-71
2021/10/21 15:41:22;;;;;;;11.20;4.70;;;18.60;99.90;;;;;;5057275;28;20043;-71
2021/10/21 15:47:52;;;;;;;8.32;4.18;;;18.40;99.90;;;;;;5060382;28;20044;-71
2021/10/21 15:51:13;;;;;;;8.43;3.90;;;18.30;99.90;;;;;;5064661;28;20059;-71
2021/10/21 16:11:24;;;;;;;7.80;4.07;;;18.10;99.90;;;;;;5066090;28;20044;-71
2021/10/21 16:14:35;;;;;;;9.15;4.32;;;18.20;99.90;;;;;;5068338;28;20048;-71
2021/10/21 16:17:41;;;;;;;11.00;4.40;;;18.30;99.90;;;;;;5062564;28;20035;-71
2021/10/21 16:20:46;;;;;;;5.90;4.00;;;18.30;99.90;;;;;;5062214;28;20043;-71
2021/10/21 16:23:54;;;;;;;7.97;4.13;;;18.30;99.90;;;;;;5066761;28;20047;-71
2021/10/21 16:30:08;;;;;;;10.70;4.50;;;18.30;99.90;;;;;;5061801;28;20047;-71
2021/10/21 16:33:12;;;;;;;11.07;4.57;;;18.30;99.90;;;;;;5062959;28;20040;-71
2021/10/21 16:36:16;;;;;;;6.38;3.88;;;18.30;99.90;;;;;;5059041;28;20044;-71
2021/10/21 16:39:21;;;;;;;6.43;4.20;;;18.20;99.90;;;;;;5056177;28;20059;-71
2021/10/21 16:42:25;;;;;;;7.65;4.03;;;18.20;99.90;;;;;;5062622;28;20043;-71
2021/10/21 16:45:30;;;;;;;8.75;4.07;;;18.30;99.90;;;;;;5067118;28;20067;-71